Time;durP1;ratioP1;P1;durP2;ratioP2;P2;SDS_P1;SDS_P2;PMS_P1;PMS_P2;Temp;Humidity;BMP_temperature;BMP_pressure;BME280_temperature;BME280_humidity;BME280_pressure;Samples;Min_cycle;Max_cycle;Signal;HPM_P1;HPM_P2
2023/08/02 00:01:31;;;;;;;9.85;4.93;;;;;;;19.88;62.14;101366.84;5074110;28;20048;-43
2023/08/02 00:03:58;;;;;;;9.10;4.40;;;;;;;19.62;63.24;101363.00;5073835;28;20025;-43
2023/08/02 00:06:27;;;;;;;12.27;4.72;;;;;;;19.81;63.92;101369.75;5073908;28;20036;-42
2023/08/02 00:08:53;;;;;;;11.05;4.72;;;;;;;19.91;62.67;101369.03;5074069;28;20059;-42
2023/08/02 00:11:20;;;;;;;9.38;4.72;;;;;;;19.72;63.18;101369.38;5073869;28;20019;-42
2023/08/02 00:13:46;;;;;;;9.35;4.80;;;;;;;19.49;64.43;101364.19;5073430;28;20108;-43
2023/08/02 00:16:14;;;;;;;11.52;5.07;;;;;;;19.16;64.42;101360.50;5073991;28;20482;-43
2023/08/02 00:18:40;;;;;;;8.50;4.65;;;;;;;19.68;64.04;101364.72;5074222;28;20072;-43
2023/08/02 00:21:06;;;;;;;10.95;4.53;;;;;;;19.55;63.50;101362.38;5073967;28;20390;-42
2023/08/02 00:23:33;;;;;;;8.73;4.35;;;;;;;19.02;65.01;101375.47;5073654;28;20046;-43
2023/08/02 00:25:59;;;;;;;11.57;4.65;;;;;;;18.99;65.82;101370.56;5073703;28;20039;-43
2023/08/02 00:28:25;;;;;;;10.32;4.32;;;;;;;18.90;65.57;101367.44;5073853;28;20036;-43
2023/08/02 00:30:51;;;;;;;6.88;4.22;;;;;;;18.37;68.43;101366.00;5073588;28;20074;-43
2023/08/02 00:33:18;;;;;;;11.52;4.57;;;;;;;18.80;66.97;101369.19;5073507;28;20032;-44
2023/08/02 00:35:45;;;;;;;9.02;4.55;;;;;;;18.77;66.77;101361.53;5073658;28;20039;-44
2023/08/02 00:38:12;;;;;;;8.50;4.43;;;;;;;19.04;66.01;101362.47;5073597;28;20028;-42
2023/08/02 00:40:38;;;;;;;9.48;4.47;;;;;;;18.82;65.58;101362.47;5073559;28;20036;-43
2023/08/02 00:43:05;;;;;;;9.32;3.70;;;;;;;19.15;65.08;101358.03;5072724;28;20024;-42
2023/08/02 00:45:32;;;;;;;9.20;3.85;;;;;;;19.12;64.21;101353.94;5073352;28;20039;-43
2023/08/02 00:47:59;;;;;;;7.25;3.88;;;;;;;19.18;65.52;101350.22;5073367;28;20024;-44
2023/08/02 00:50:31;;;;;;;7.88;4.10;;;;;;;19.11;65.56;101362.31;5072836;28;20036;-43
2023/08/02 00:52:58;;;;;;;6.57;4.03;;;;;;;18.98;65.65;101361.59;5072990;28;20017;-45
2023/08/02 00:55:25;;;;;;;9.80;3.90;;;;;;;18.88;66.41;101363.34;5073042;28;20060;-44
2023/08/02 00:57:51;;;;;;;11.57;4.50;;;;;;;18.23;68.44;101358.47;5073168;28;20045;-45
2023/08/02 01:00:17;;;;;;;8.15;3.65;;;;;;;18.34;68.31;101368.41;5073126;28;20486;-43
2023/08/02 01:02:44;;;;;;;7.30;3.70;;;;;;;18.13;68.95;101362.63;5073294;28;20081;-42
2023/08/02 01:05:11;;;;;;;9.23;3.97;;;;;;;18.26;68.54;101366.91;5071424;28;20503;-42
2023/08/02 01:07:49;;;;;;;7.00;3.38;;;;;;;18.13;69.05;101372.63;5053095;28;20463;-44
2023/08/02 01:10:33;;;;;;;6.85;3.67;;;;;;;18.05;70.00;101370.34;5068471;28;20407;-44
2023/08/02 01:13:06;;;;;;;6.70;3.72;;;;;;;18.16;69.56;101375.69;5072849;28;20029;-44
2023/08/02 01:15:34;;;;;;;9.77;3.95;;;;;;;18.01;69.72;101370.00;5072645;28;20051;-41
2023/08/02 01:18:02;;;;;;;10.75;4.85;;;;;;;17.72;72.13;101376.44;5072641;28;20508;-40
2023/08/02 01:20:28;;;;;;;9.32;4.20;;;;;;;17.70;71.93;101368.53;5072828;28;20033;-41
2023/08/02 01:22:55;;;;;;;9.13;4.15;;;;;;;17.32;73.01;101377.22;5072358;28;20540;-41
2023/08/02 01:25:24;;;;;;;13.85;4.40;;;;;;;17.36;74.30;101381.09;5071811;28;20028;-41
2023/08/02 01:27:58;;;;;;;9.32;4.57;;;;;;;17.12;73.77;101377.59;5072661;28;20028;-40
2023/08/02 01:30:33;;;;;;;11.67;4.93;;;;;;;17.39;74.67;101383.34;5070239;28;20478;-41
2023/08/02 01:32:59;;;;;;;10.17;3.73;;;;;;;17.42;73.02;101383.66;5072304;28;20265;-40
2023/08/02 01:35:27;;;;;;;8.75;4.13;;;;;;;17.29;73.16;101388.53;5071750;28;20029;-40
2023/08/02 01:37:53;;;;;;;10.13;3.90;;;;;;;17.14;73.98;101387.09;5072228;28;20048;-41
2023/08/02 01:40:20;;;;;;;7.10;3.45;;;;;;;16.94;74.32;101389.38;5071903;28;20459;-41
2023/08/02 01:42:46;;;;;;;9.40;3.45;;;;;;;16.82;74.91;101388.50;5072432;28;20576;-41
2023/08/02 01:45:13;;;;;;;9.18;3.60;;;;;;;16.74;75.89;101396.97;5071509;28;20028;-41
2023/08/02 01:47:39;;;;;;;4.88;3.03;;;;;;;16.74;75.77;101397.81;5071944;28;20089;-40
2023/08/02 01:50:06;;;;;;;8.52;3.50;;;;;;;16.66;75.79;101397.28;5072223;28;20455;-39
2023/08/02 01:52:32;;;;;;;6.88;3.17;;;;;;;16.60;76.12;101386.38;5072377;28;20067;-39
2023/08/02 01:54:59;;;;;;;6.25;3.25;;;;;;;16.67;75.85;101391.66;5072365;28;20039;-39
2023/08/02 01:57:25;;;;;;;5.13;3.40;;;;;;;16.86;75.12;101395.09;5071488;28;20029;-39
2023/08/02 01:59:51;;;;;;;5.78;3.75;;;;;;;16.94;75.42;101392.06;5072979;28;20028;-40
2023/08/02 02:02:18;;;;;;;5.80;3.28;;;;;;;16.57;76.14;101392.22;5072323;28;20032;-39
2023/08/02 02:04:44;;;;;;;6.93;3.58;;;;;;;16.66;76.49;101390.03;5072028;28;20020;-39
2023/08/02 02:07:10;;;;;;;7.38;4.18;;;;;;;16.60;76.46;101397.19;5062086;28;20482;-39
2023/08/02 02:09:37;;;;;;;6.40;4.30;;;;;;;16.41;77.19;101390.19;5052467;28;20037;-38
2023/08/02 02:12:03;;;;;;;6.78;3.95;;;;;;;16.59;77.20;101389.28;5053122;28;20348;-38
2023/08/02 02:14:30;;;;;;;5.80;3.28;;;;;;;16.40;77.18;101404.75;5065773;28;20035;-39
2023/08/02 02:16:56;;;;;;;5.88;3.50;;;;;;;16.39;77.59;101403.13;5054354;28;20037;-39
2023/08/02 02:19:22;;;;;;;9.38;4.35;;;;;;;16.42;77.70;101415.31;5044359;28;20047;-39
2023/08/02 02:21:48;;;;;;;7.07;3.95;;;;;;;16.31;78.11;101406.13;5051869;28;20447;-39
2023/08/02 02:24:15;;;;;;;8.38;3.58;;;;;;;16.22;78.39;101404.81;5053098;28;20056;-39
2023/08/02 02:26:41;;;;;;;7.90;4.40;;;;;;;15.91;79.92;101413.97;5071659;28;20066;-39
2023/08/02 02:29:08;;;;;;;7.65;3.97;;;;;;;15.84;80.58;101414.03;5071690;28;20028;-39
2023/08/02 02:31:34;;;;;;;9.98;4.00;;;;;;;15.89;80.33;101421.47;5071738;28;20032;-39
2023/08/02 02:34:00;;;;;;;11.73;4.80;;;;;;;15.99;80.08;101411.78;5071648;28;20025;-39
2023/08/02 02:36:27;;;;;;;6.20;3.78;;;;;;;16.00;79.11;101424.22;5064598;28;20363;-39
2023/08/02 02:38:53;;;;;;;6.07;3.78;;;;;;;15.80;79.30;101420.94;5071974;28;20029;-39
2023/08/02 02:41:19;;;;;;;5.45;3.65;;;;;;;15.76;80.00;101417.03;5071626;28;20025;-39
2023/08/02 02:43:46;;;;;;;6.90;4.13;;;;;;;15.66;80.26;101417.59;5071198;28;20025;-39
2023/08/02 02:46:12;;;;;;;7.70;3.92;;;;;;;15.49;81.50;101422.72;5071745;28;20017;-39
2023/08/02 02:48:38;;;;;;;7.57;3.80;;;;;;;15.33;82.80;101417.91;5071502;28;20478;-39
2023/08/02 02:51:05;;;;;;;7.75;4.45;;;;;;;15.26;83.24;101419.84;5066727;28;20029;-38
2023/08/02 02:53:31;;;;;;;7.65;4.53;;;;;;;15.41;82.49;101419.50;5071673;28;20028;-39
2023/08/02 02:55:57;;;;;;;7.75;4.40;;;;;;;15.26;83.51;101420.66;5071154;28;20028;-39
2023/08/02 02:58:23;;;;;;;9.00;4.13;;;;;;;15.44;82.54;101425.28;5071223;28;20032;-40
2023/08/02 03:00:50;;;;;;;7.05;4.82;;;;;;;15.31;83.35;101428.09;5070336;28;20029;-40
2023/08/02 03:03:16;;;;;;;9.35;4.72;;;;;;;15.28;83.20;101440.16;5070620;28;20040;-39
2023/08/02 03:05:42;;;;;;;6.05;4.43;;;;;;;15.16;83.54;101443.81;5071502;28;20029;-39
2023/08/02 03:08:08;;;;;;;8.23;4.55;;;;;;;15.18;83.43;101441.72;5070652;28;20029;-39
2023/08/02 03:10:35;;;;;;;8.88;5.63;;;;;;;14.98;85.38;101442.69;5053501;28;20028;-39
2023/08/02 03:13:01;;;;;;;7.32;4.68;;;;;;;14.91;85.84;101439.25;5052446;28;20025;-38
2023/08/02 03:15:27;;;;;;;7.13;4.60;;;;;;;14.88;86.29;101444.22;5068860;28;20493;-39
2023/08/02 03:17:54;;;;;;;7.65;4.85;;;;;;;14.82;86.71;101443.25;5050845;28;20115;-39
2023/08/02 03:20:20;;;;;;;7.35;4.60;;;;;;;14.86;87.28;101447.16;5052946;28;20598;-39
2023/08/02 03:22:47;;;;;;;9.65;5.28;;;;;;;14.81;87.50;101447.00;5070516;28;20332;-39
2023/08/02 03:25:13;;;;;;;6.53;4.68;;;;;;;14.94;87.81;101446.91;5071170;28;20021;-38
2023/08/02 03:27:40;;;;;;;9.82;5.05;;;;;;;15.03;87.03;101452.81;5058100;28;20029;-38
2023/08/02 03:30:07;;;;;;;6.93;4.40;;;;;;;15.02;86.77;101452.00;5074539;28;20418;-38
2023/08/02 03:32:33;;;;;;;7.57;4.60;;;;;;;15.10;86.49;101452.75;5074596;28;20150;-39
2023/08/02 03:34:59;;;;;;;7.63;4.80;;;;;;;15.02;85.99;101454.69;5074584;28;20031;-39
2023/08/02 03:37:25;;;;;;;5.88;4.28;;;;;;;14.99;86.15;101457.84;5074436;28;20036;-39
2023/08/02 03:39:52;;;;;;;7.72;4.82;;;;;;;14.95;86.02;101464.72;5074466;28;20024;-39
2023/08/02 03:42:18;;;;;;;10.15;4.40;;;;;;;15.08;85.69;101474.56;5074222;28;20020;-39
2023/08/02 03:44:44;;;;;;;9.35;4.40;;;;;;;14.95;85.55;101475.50;5074239;28;20052;-38
2023/08/02 03:47:10;;;;;;;4.90;3.70;;;;;;;15.18;84.47;101482.16;5074706;28;20458;-39
2023/08/02 03:49:37;;;;;;;5.18;4.38;;;;;;;15.15;84.79;101485.28;5074249;28;20509;-39
2023/08/02 03:52:04;;;;;;;6.05;4.18;;;;;;;15.10;84.85;101485.13;5074383;28;20025;-39
2023/08/02 03:54:30;;;;;;;7.75;4.22;;;;;;;15.19;84.15;101490.03;5074161;28;20111;-39
2023/08/02 03:56:56;;;;;;;6.30;4.13;;;;;;;15.16;84.26;101486.97;5074117;28;20040;-39
2023/08/02 03:59:22;;;;;;;6.55;4.30;;;;;;;15.13;84.17;101493.59;5074380;28;20125;-39
2023/08/02 04:01:49;;;;;;;5.18;4.18;;;;;;;15.17;84.91;101499.41;5073851;28;20025;-39
2023/08/02 04:04:15;;;;;;;5.47;4.38;;;;;;;15.24;84.53;101492.88;5072697;28;20052;-39
2023/08/02 04:06:41;;;;;;;6.40;4.32;;;;;;;15.11;85.18;101506.50;5054116;28;20071;-39
2023/08/02 04:09:07;;;;;;;7.30;4.32;;;;;;;15.16;85.64;101503.97;5069600;28;20425;-39
2023/08/02 04:11:34;;;;;;;7.05;4.00;;;;;;;15.13;86.11;101506.25;5073862;28;20052;-39
2023/08/02 04:14:00;;;;;;;7.25;4.53;;;;;;;15.11;86.55;101511.88;5072699;28;20394;-39
2023/08/02 04:16:26;;;;;;;9.90;4.82;;;;;;;15.15;86.95;101521.16;5073578;28;20028;-39
2023/08/02 04:18:52;;;;;;;6.47;4.50;;;;;;;15.13;86.90;101525.13;5073744;28;20498;-39
2023/08/02 04:21:20;;;;;;;9.60;4.90;;;;;;;15.19;86.58;101524.25;5074026;28;20025;-39
2023/08/02 04:23:49;;;;;;;9.10;4.72;;;;;;;15.19;87.23;101529.66;5073568;28;20024;-39
2023/08/02 04:26:15;;;;;;;8.18;5.07;;;;;;;15.08;87.53;101535.75;5073521;28;20082;-39
2023/08/02 04:28:41;;;;;;;9.10;5.00;;;;;;;15.02;88.60;101535.56;5074199;28;20035;-39
2023/08/02 04:31:07;;;;;;;8.57;4.72;;;;;;;14.95;89.12;101536.69;5073757;28;20382;-39
2023/08/02 04:33:34;;;;;;;9.95;5.70;;;;;;;14.90;89.45;101542.72;5073737;28;20032;-39
2023/08/02 04:36:03;;;;;;;7.38;5.03;;;;;;;14.92;89.38;101535.22;5073686;28;20082;-40
2023/08/02 04:38:30;;;;;;;9.10;4.70;;;;;;;14.88;89.75;101539.44;5073045;28;20078;-39
2023/08/02 04:40:57;;;;;;;8.32;4.82;;;;;;;14.89;89.67;101535.69;5073020;28;20036;-39
2023/08/02 04:43:24;;;;;;;11.48;4.22;;;;;;;14.95;89.20;101533.97;5073279;28;20024;-39
2023/08/02 04:45:50;;;;;;;12.60;4.72;;;;;;;15.04;89.26;101538.03;5073390;28;20024;-40
2023/08/02 04:48:17;;;;;;;9.98;4.82;;;;;;;15.13;88.84;101542.13;5073516;28;20038;-40
2023/08/02 04:50:43;;;;;;;9.07;5.10;;;;;;;15.22;88.50;101535.44;5055107;28;20438;-39
2023/08/02 04:53:10;;;;;;;13.15;5.00;;;;;;;15.14;89.18;101538.38;5052840;28;20033;-39
2023/08/02 04:55:43;;;;;;;8.98;5.03;;;;;;;15.10;89.47;101542.56;5053120;28;20048;-40
2023/08/02 04:58:10;;;;;;;12.43;6.90;;;;;;;15.15;89.03;101540.03;5053317;28;20108;-39
2023/08/02 05:00:37;;;;;;;11.90;6.03;;;;;;;15.15;89.26;101539.22;5052986;28;20060;-39
2023/08/02 05:03:03;;;;;;;10.05;4.38;;;;;;;15.14;89.05;101546.47;5052807;28;20079;-39
2023/08/02 05:05:30;;;;;;;7.10;3.97;;;;;;;15.17;89.07;101543.34;5052753;28;20460;-39
2023/08/02 05:07:56;;;;;;;8.80;4.38;;;;;;;15.15;88.82;101539.22;5052796;28;20044;-39
2023/08/02 05:10:22;;;;;;;9.90;5.10;;;;;;;15.09;89.55;101543.59;5052990;28;20021;-39
2023/08/02 05:12:48;;;;;;;8.13;4.38;;;;;;;15.17;88.23;101540.66;5052826;28;20447;-39
2023/08/02 05:15:15;;;;;;;8.98;4.30;;;;;;;15.20;88.09;101542.09;5052658;28;20091;-39
2023/08/02 05:17:41;;;;;;;7.07;3.70;;;;;;;15.07;89.01;101547.59;5052409;28;20041;-39
2023/08/02 05:20:08;;;;;;;6.18;4.22;;;;;;;15.14;89.20;101537.56;5052766;28;20021;-39
2023/08/02 05:22:34;;;;;;;8.43;4.25;;;;;;;15.00;89.94;101542.25;5052559;28;20036;-39
2023/08/02 05:25:00;;;;;;;10.80;5.35;;;;;;;15.07;90.21;101542.19;5052563;28;20025;-39
2023/08/02 05:27:27;;;;;;;6.72;4.20;;;;;;;15.09;89.81;101545.47;5052640;28;20029;-40
2023/08/02 05:29:53;;;;;;;11.48;4.85;;;;;;;15.12;89.67;101543.19;5051773;28;20094;-40
2023/08/02 05:32:19;;;;;;;6.90;4.05;;;;;;;15.11;90.09;101543.41;5052172;28;20031;-39
2023/08/02 05:34:45;;;;;;;6.47;4.18;;;;;;;15.02;89.53;101540.16;5051787;28;20029;-39
2023/08/02 05:37:12;;;;;;;8.07;4.82;;;;;;;14.87;90.17;101540.44;5052530;28;20522;-39
2023/08/02 05:39:38;;;;;;;10.45;4.25;;;;;;;14.93;90.35;101542.25;5052113;28;20029;-39
2023/08/02 05:42:05;;;;;;;6.65;4.15;;;;;;;14.89;91.01;101546.47;5048339;28;20021;-39
2023/08/02 05:44:31;;;;;;;5.18;4.22;;;;;;;14.96;90.44;101546.41;5052129;28;20029;-39
2023/08/02 05:46:57;;;;;;;7.60;4.55;;;;;;;14.85;90.92;101549.81;5052182;28;20040;-39
2023/08/02 05:49:24;;;;;;;5.93;3.67;;;;;;;14.98;90.24;101545.13;5051826;28;20053;-39
2023/08/02 05:51:50;;;;;;;9.70;4.82;;;;;;;14.89;89.58;101545.63;5051820;28;20028;-39
2023/08/02 05:54:16;;;;;;;8.38;3.97;;;;;;;14.93;88.46;101541.44;5033763;28;20507;-39
2023/08/02 05:56:43;;;;;;;7.95;4.07;;;;;;;14.95;88.45;101542.91;5051662;28;20029;-40
2023/08/02 05:59:10;;;;;;;8.27;4.05;;;;;;;15.07;87.80;101542.19;5051791;28;20028;-39
2023/08/02 06:01:36;;;;;;;8.70;4.22;;;;;;;15.09;88.41;101540.09;5051878;28;20120;-39
2023/08/02 06:04:02;;;;;;;5.78;3.65;;;;;;;15.12;88.80;101539.66;5050707;28;20558;-40
2023/08/02 06:06:28;;;;;;;7.82;4.50;;;;;;;15.11;89.17;101535.31;5032063;28;20336;-38
2023/08/02 06:08:57;;;;;;;7.05;4.45;;;;;;;15.09;89.74;101537.41;5032042;28;20545;-39
2023/08/02 06:11:24;;;;;;;7.90;4.05;;;;;;;15.12;89.73;101536.97;5032281;28;20045;-39
2023/08/02 06:13:50;;;;;;;7.18;4.18;;;;;;;15.02;90.56;101534.75;5031691;28;20068;-39
2023/08/02 06:16:17;;;;;;;12.90;4.30;;;;;;;15.02;90.25;101535.56;5031975;28;20033;-39
2023/08/02 06:18:43;;;;;;;6.20;3.65;;;;;;;14.96;89.72;101535.63;5047467;28;20041;-39
2023/08/02 06:21:09;;;;;;;10.48;4.55;;;;;;;14.81;90.78;101527.84;5051707;28;20017;-38
2023/08/02 06:23:35;;;;;;;7.13;3.63;;;;;;;14.92;90.24;101535.22;5051350;28;20032;-39
2023/08/02 06:26:02;;;;;;;5.05;3.78;;;;;;;14.88;90.36;101531.34;5051415;28;20021;-39
2023/08/02 06:28:28;;;;;;;9.02;3.60;;;;;;;15.08;90.05;101524.97;5051684;28;20116;-39
2023/08/02 06:30:54;;;;;;;9.35;4.18;;;;;;;14.95;90.27;101523.19;5051554;28;20032;-39
2023/08/02 06:33:20;;;;;;;6.15;3.75;;;;;;;14.96;90.41;101530.25;5050829;28;20025;-39
2023/08/02 06:35:47;;;;;;;7.97;4.00;;;;;;;15.04;89.85;101525.38;5051625;28;20056;-39
2023/08/02 06:38:13;;;;;;;8.93;3.17;;;;;;;14.92;90.90;101532.53;5051531;28;20032;-39
2023/08/02 06:40:39;;;;;;;5.70;4.00;;;;;;;14.86;91.21;101530.72;5051452;28;20055;-39
2023/08/02 06:43:05;;;;;;;7.93;3.88;;;;;;;14.87;91.11;101531.53;5051173;28;20025;-38
2023/08/02 06:48:00;;;;;;;6.63;4.10;;;;;;;14.82;91.50;101534.06;5071526;28;20048;-39
2023/08/02 06:50:26;;;;;;;8.10;4.03;;;;;;;14.91;91.02;101530.88;5091548;28;20024;-39
2023/08/02 06:52:52;;;;;;;4.60;3.08;;;;;;;14.86;91.90;101530.72;5091260;28;20020;-38
2023/08/02 06:55:19;;;;;;;6.15;3.33;;;;;;;14.88;91.98;101536.72;5083493;28;20459;-39
2023/08/02 06:57:45;;;;;;;6.03;3.55;;;;;;;14.85;92.53;101534.47;5071066;28;20408;-39
2023/08/02 07:00:12;;;;;;;6.13;3.10;;;;;;;14.82;92.35;101540.25;5070685;28;20060;-39
2023/08/02 07:02:38;;;;;;;5.53;3.20;;;;;;;14.91;91.73;101538.16;5072226;28;20111;-39
2023/08/02 07:05:04;;;;;;;9.43;2.88;;;;;;;14.85;91.55;101533.63;5067033;28;20060;-40
2023/08/02 07:07:31;;;;;;;7.13;3.40;;;;;;;14.78;91.97;101536.38;5055447;28;20040;-38
2023/08/02 07:09:57;;;;;;;5.03;3.90;;;;;;;14.67;92.89;101540.59;5055297;28;20025;-39
2023/08/02 07:12:23;;;;;;;8.50;3.45;;;;;;;14.70;92.49;101536.63;5055054;28;20024;-38
2023/08/02 07:14:49;;;;;;;5.90;3.30;;;;;;;14.63;93.52;101530.44;5055032;28;20021;-38
2023/08/02 07:17:16;;;;;;;4.78;3.28;;;;;;;14.64;93.43;101537.47;5055029;28;20064;-39
2023/08/02 07:19:42;;;;;;;5.45;3.40;;;;;;;14.64;93.00;101538.31;5073333;28;20016;-39
2023/08/02 07:22:09;;;;;;;5.50;3.03;;;;;;;14.66;92.54;101532.72;5075047;28;20028;-39
2023/08/02 07:24:35;;;;;;;5.35;2.72;;;;;;;14.75;92.25;101539.50;5074568;28;20494;-39
2023/08/02 07:27:01;;;;;;;6.38;2.97;;;;;;;14.73;92.38;101541.59;5074579;28;20115;-38
2023/08/02 07:29:28;;;;;;;4.55;2.53;;;;;;;14.67;93.13;101531.69;5074972;28;20039;-39
2023/08/02 07:31:54;;;;;;;4.20;2.65;;;;;;;14.63;93.28;101536.66;5075144;28;20025;-39
2023/08/02 07:34:20;;;;;;;4.50;2.63;;;;;;;14.67;92.80;101532.50;5074137;28;20024;-39
2023/08/02 07:36:46;;;;;;;5.28;2.58;;;;;;;14.72;92.43;101534.53;5074666;28;20036;-39
2023/08/02 07:39:13;;;;;;;2.80;2.30;;;;;;;14.73;92.06;101528.94;5074639;28;20081;-39
2023/08/02 07:41:39;;;;;;;6.03;2.42;;;;;;;14.64;92.18;101518.63;5074630;28;20033;-39
2023/08/02 07:44:05;;;;;;;4.25;2.65;;;;;;;14.61;92.34;101522.59;5074139;28;20024;-39
2023/08/02 07:46:31;;;;;;;3.83;2.75;;;;;;;14.55;92.57;101520.75;5066609;28;20045;-39
2023/08/02 07:48:58;;;;;;;3.95;2.63;;;;;;;14.64;92.10;101522.13;5054611;28;20032;-39
2023/08/02 07:51:24;;;;;;;4.78;2.30;;;;;;;14.57;92.65;101515.16;5054016;28;20044;-39
2023/08/02 07:53:50;;;;;;;3.92;2.53;;;;;;;14.53;93.05;101520.94;5054260;28;20023;-39
2023/08/02 07:56:16;;;;;;;2.72;2.20;;;;;;;14.59;92.23;101521.13;5054508;28;20112;-39
2023/08/02 07:58:43;;;;;;;2.88;2.17;;;;;;;14.62;91.04;101515.34;5053946;28;20090;-38
2023/08/02 08:01:10;;;;;;;5.00;2.22;;;;;;;14.63;90.89;101514.28;5054304;28;20032;-39
2023/08/02 08:03:37;;;;;;;5.82;1.92;;;;;;;14.69;90.99;101513.41;5053616;28;20071;-39
2023/08/02 08:06:11;;;;;;;5.07;1.98;;;;;;;14.53;91.78;101522.81;5037835;28;20112;-39
2023/08/02 08:08:37;;;;;;;4.15;2.10;;;;;;;14.47;92.32;101511.03;5034405;28;20036;-39
2023/08/02 08:11:04;;;;;;;4.53;2.00;;;;;;;14.51;92.65;101508.75;5044529;28;20044;-39
2023/08/02 08:13:30;;;;;;;2.60;1.88;;;;;;;14.56;92.95;101508.13;5053340;28;20105;-39
2023/08/02 08:15:56;;;;;;;5.00;2.13;;;;;;;14.65;92.11;101507.63;5053985;28;20039;-38
2023/08/02 08:18:23;;;;;;;7.85;2.50;;;;;;;14.53;92.95;101510.19;5054059;28;20032;-38
2023/08/02 08:20:49;;;;;;;4.05;2.35;;;;;;;14.50;93.72;101504.41;5053427;28;20079;-39
2023/08/02 08:23:15;;;;;;;3.92;2.75;;;;;;;14.52;94.16;101510.41;5053448;28;20029;-39
2023/08/02 08:25:41;;;;;;;4.13;2.13;;;;;;;14.51;93.98;101512.28;5053357;28;20021;-39
2023/08/02 08:28:08;;;;;;;3.50;2.33;;;;;;;14.47;93.25;101508.34;5053871;28;20115;-39
2023/08/02 08:30:34;;;;;;;3.67;2.15;;;;;;;14.48;92.65;101507.31;5054055;28;20079;-39
2023/08/02 08:33:00;;;;;;;3.35;1.80;;;;;;;14.51;92.51;101500.69;5053347;28;20427;-39
2023/08/02 08:35:26;;;;;;;4.03;1.90;;;;;;;14.53;91.78;101510.19;5053582;28;20036;-39
2023/08/02 08:37:53;;;;;;;3.90;2.08;;;;;;;14.42;91.27;101505.44;5053609;28;20444;-39
2023/08/02 08:40:20;;;;;;;3.83;1.80;;;;;;;14.38;90.74;101515.00;5053299;28;20029;-39
2023/08/02 08:42:53;;;;;;;3.75;1.98;;;;;;;14.46;90.45;101512.06;5035705;28;20021;-39
2023/08/02 08:45:21;;;;;;;4.95;1.70;;;;;;;14.48;90.31;101504.59;5052969;28;20395;-39
2023/08/02 08:47:49;;;;;;;4.65;1.92;;;;;;;14.39;91.80;101513.97;5071498;28;20509;-39
2023/08/02 08:50:17;;;;;;;2.15;1.75;;;;;;;14.44;91.02;101506.06;5073126;28;20042;-39
2023/08/02 08:52:50;;;;;;;2.90;1.75;;;;;;;14.32;91.45;101502.38;5072943;28;20082;-39
2023/08/02 08:55:17;;;;;;;2.00;1.70;;;;;;;14.40;91.80;101504.03;5073292;28;20031;-38
2023/08/02 08:57:45;;;;;;;1.88;1.40;;;;;;;14.53;91.68;101499.41;5073206;28;20039;-39
2023/08/02 09:00:13;;;;;;;1.90;1.60;;;;;;;14.53;91.34;101499.41;5073280;28;20028;-38
2023/08/02 09:02:41;;;;;;;3.30;1.58;;;;;;;14.52;91.30;101502.31;5073016;28;20028;-41
2023/08/02 09:05:08;;;;;;;4.97;1.70;;;;;;;14.53;91.16;101499.41;5063831;28;20021;-39
2023/08/02 09:07:35;;;;;;;1.60;1.50;;;;;;;14.59;90.99;101491.50;5069398;28;20048;-39
2023/08/02 09:10:01;;;;;;;3.38;2.20;;;;;;;14.60;90.84;101496.66;5073338;28;20117;-39
2023/08/02 09:12:28;;;;;;;3.88;2.13;;;;;;;14.54;91.21;101500.22;5072690;28;20039;-39
2023/08/02 09:15:04;;;;;;;3.13;1.85;;;;;;;14.49;90.50;101492.81;5073042;28;20025;-39
2023/08/02 09:17:53;;;;;;;4.65;2.28;;;;;;;14.52;91.08;101481.59;5072723;28;20029;-39
2023/08/02 09:20:21;;;;;;;3.97;1.70;;;;;;;14.52;90.39;101486.97;5072939;28;20051;-38
2023/08/02 09:22:48;;;;;;;2.65;1.65;;;;;;;14.52;90.27;101481.59;5072465;28;20107;-39
2023/08/02 09:25:25;;;;;;;2.63;1.85;;;;;;;14.41;91.30;101478.72;5071421;28;20031;-39
2023/08/02 09:27:52;;;;;;;2.67;1.90;;;;;;;14.45;91.50;101474.56;5072641;28;20390;-39
2023/08/02 09:30:32;;;;;;;3.05;1.88;;;;;;;14.40;92.06;101482.47;5072601;28;20103;-39
2023/08/02 09:32:59;;;;;;;3.25;1.80;;;;;;;14.48;91.56;101474.16;5072614;28;20476;-39
2023/08/02 09:35:26;;;;;;;2.22;1.60;;;;;;;14.43;90.60;101465.88;5070051;28;20064;-39
2023/08/02 09:37:52;;;;;;;4.07;1.83;;;;;;;14.50;90.10;101467.53;5052754;28;20562;-39
2023/08/02 09:40:33;;;;;;;2.20;1.70;;;;;;;14.39;91.28;101461.97;5056014;28;20081;-39
2023/08/02 09:43:02;;;;;;;7.45;2.08;;;;;;;14.35;92.49;101452.66;5072160;28;20036;-39
2023/08/02 09:45:33;;;;;;;5.30;2.45;;;;;;;14.44;91.94;101454.91;5072266;28;20020;-39
2023/08/02 09:48:00;;;;;;;2.72;2.00;;;;;;;14.41;91.74;101457.19;5052356;28;20045;-39
2023/08/02 09:50:27;;;;;;;4.20;2.30;;;;;;;14.43;91.42;101455.91;5052301;28;20025;-38
2023/08/02 09:52:54;;;;;;;4.15;2.30;;;;;;;14.41;91.87;101455.31;5051957;28;20055;-39
2023/08/02 09:55:20;;;;;;;5.15;2.35;;;;;;;14.44;91.90;101462.97;5052002;28;20391;-39
2023/08/02 09:57:48;;;;;;;3.20;1.88;;;;;;;14.47;91.45;101461.72;5052047;28;20021;-39
2023/08/02 10:00:15;;;;;;;4.80;2.35;;;;;;;14.39;91.26;101452.03;5052246;28;20070;-39
2023/08/02 10:02:42;;;;;;;4.25;2.05;;;;;;;14.44;90.75;101457.59;5051799;28;20021;-38
2023/08/02 10:05:13;;;;;;;5.45;2.10;;;;;;;14.46;90.84;101454.66;5051515;28;20098;-39
2023/08/02 10:07:47;;;;;;;2.63;1.75;;;;;;;14.42;91.03;101451.56;5051540;28;20041;-39
2023/08/02 10:10:18;;;;;;;3.60;1.63;;;;;;;14.34;90.22;101451.84;5052050;28;20056;-38
2023/08/02 10:12:54;;;;;;;3.70;1.88;;;;;;;14.32;90.45;101442.31;5051696;28;20269;-39
2023/08/02 10:15:21;;;;;;;2.72;1.58;;;;;;;14.29;90.86;101445.44;5051797;28;20036;-39
2023/08/02 10:17:48;;;;;;;2.53;1.85;;;;;;;14.26;91.39;101441.31;5033716;28;20025;-39
2023/08/02 10:20:15;;;;;;;3.25;1.98;;;;;;;14.21;91.57;101436.59;5051829;28;20506;-39
2023/08/02 10:22:43;;;;;;;4.20;1.65;;;;;;;14.34;91.13;101433.00;5051185;28;20131;-39
2023/08/02 10:25:13;;;;;;;3.13;1.58;;;;;;;14.31;91.35;101433.41;5051563;28;20025;-39
2023/08/02 10:27:41;;;;;;;3.13;1.55;;;;;;;14.35;91.29;101431.94;5051312;28;20024;-38
2023/08/02 10:30:10;;;;;;;2.35;1.40;;;;;;;14.37;91.57;101429.84;5051587;28;20025;-39
2023/08/02 10:32:36;;;;;;;6.05;2.30;;;;;;;14.23;91.36;101434.50;5051384;28;20024;-39
2023/08/02 10:35:03;;;;;;;2.95;1.80;;;;;;;14.24;92.01;101427.25;5051335;28;20036;-38
2023/08/02 10:37:54;;;;;;;4.85;2.40;;;;;;;14.19;92.72;101427.88;5050564;28;20045;-41
2023/08/02 10:40:25;;;;;;;1.90;1.60;;;;;;;14.17;92.18;101421.91;5051063;28;20107;-39
2023/08/02 10:43:07;;;;;;;3.20;1.52;;;;;;;14.20;92.05;101429.53;5051121;28;20021;-39
2023/08/02 10:45:34;;;;;;;2.92;1.90;;;;;;;14.19;92.08;101424.38;5051332;28;20399;-39
2023/08/02 10:48:26;;;;;;;2.90;1.60;;;;;;;14.22;92.17;101427.47;5051117;28;20049;-39
2023/08/02 10:50:52;;;;;;;4.03;1.38;;;;;;;14.13;92.72;101427.94;5051341;28;20120;-39
2023/08/02 10:53:19;;;;;;;3.30;1.63;;;;;;;14.21;92.60;101424.97;5050199;28;20537;-42
2023/08/02 10:56:17;;;;;;;2.65;1.75;;;;;;;14.27;93.01;101421.44;5049145;28;20086;-39
2023/08/02 10:58:52;;;;;;;2.05;1.55;;;;;;;14.27;92.45;101416.06;5035227;28;20115;-39
2023/08/02 11:01:20;;;;;;;3.92;1.60;;;;;;;14.25;91.44;101426.19;5051333;28;20353;-39
2023/08/02 11:03:46;;;;;;;3.97;1.60;;;;;;;14.26;91.68;101423.28;5050667;28;20437;-40
2023/08/02 11:06:33;;;;;;;4.25;1.50;;;;;;;14.25;92.16;101427.03;5046399;28;20021;-39
2023/08/02 11:08:59;;;;;;;2.25;1.85;;;;;;;14.26;91.81;101430.53;5031018;28;20084;-39
2023/08/02 11:11:30;;;;;;;3.95;1.88;;;;;;;14.25;91.61;101428.88;5038283;28;20020;-39
2023/08/02 11:13:57;;;;;;;2.28;1.60;;;;;;;14.33;91.24;101433.22;5051080;28;20021;-39
2023/08/02 11:16:23;;;;;;;3.17;2.00;;;;;;;14.29;91.72;101427.44;5051476;28;20021;-39
2023/08/02 11:18:50;;;;;;;3.90;2.08;;;;;;;14.38;91.12;101434.22;5051240;28;20029;-39
2023/08/02 11:21:16;;;;;;;5.28;2.00;;;;;;;14.28;92.00;101428.47;5051405;28;20540;-39
2023/08/02 11:23:43;;;;;;;4.13;2.00;;;;;;;14.41;91.59;101431.06;5051155;28;20505;-39
2023/08/02 11:26:14;;;;;;;3.70;1.98;;;;;;;14.47;92.29;101438.31;5051087;28;20064;-39
2023/08/02 11:28:52;;;;;;;6.78;2.15;;;;;;;14.49;93.21;101430.88;5051133;28;20467;-38